Time;durP1;ratioP1;P1;durP2;ratioP2;P2;SDS_P1;SDS_P2;PMS_P1;PMS_P2;Temp;Humidity;BMP_temperature;BMP_pressure;BME280_temperature;BME280_humidity;BME280_pressure;Samples;Min_cycle;Max_cycle;Signal;HPM_P1;HPM_P2
2022/12/23 00:02:50;;;;;;;4.63;2.50;;;15.80;68.80;;;;;;10342508;28;20529;-49
2022/12/23 00:07:51;;;;;;;3.42;2.50;;;15.80;68.90;;;;;;10368414;28;20093;-48
2022/12/23 00:18:11;;;;;;;3.60;2.40;;;15.90;68.60;;;;;;10368061;28;20030;-50
2022/12/23 00:23:11;;;;;;;2.78;2.08;;;15.90;69.00;;;;;;10367721;28;20491;-50
2022/12/23 00:28:21;;;;;;;5.72;2.88;;;16.00;68.50;;;;;;10366263;28;20112;-51
2022/12/23 00:33:28;;;;;;;3.88;2.60;;;16.00;68.30;;;;;;10349406;28;20026;-49
2022/12/23 00:43:48;;;;;;;3.77;2.33;;;15.90;68.40;;;;;;10330440;28;20046;-48
2022/12/23 00:54:08;;;;;;;4.13;2.55;;;16.00;68.40;;;;;;10326733;28;20026;-49
2022/12/23 00:59:09;;;;;;;4.07;2.70;;;16.00;68.40;;;;;;10362705;28;20029;-52
2022/12/23 01:09:34;;;;;;;3.70;2.65;;;15.90;68.60;;;;;;10336217;28;20081;-48
2022/12/23 01:14:35;;;;;;;3.28;2.30;;;15.90;68.30;;;;;;10325154;28;20454;-49
2022/12/23 01:19:36;;;;;;;4.60;2.67;;;16.00;68.40;;;;;;10325320;28;20113;-50
2022/12/23 01:24:37;;;;;;;3.90;2.50;;;16.00;68.40;;;;;;10356786;28;20041;-48
2022/12/23 01:29:37;;;;;;;3.50;2.17;;;15.90;68.50;;;;;;10365728;28;20435;-49
2022/12/23 01:34:38;;;;;;;3.92;2.25;;;15.90;68.40;;;;;;10365159;28;20042;-52
2022/12/23 01:39:39;;;;;;;3.50;2.35;;;15.90;68.30;;;;;;10362124;28;20403;-52
2022/12/23 01:45:10;;;;;;;3.60;2.45;;;15.90;68.30;;;;;;10337001;28;20057;-49
2022/12/23 01:50:25;;;;;;;3.83;2.42;;;15.90;68.30;;;;;;10352407;28;20112;-51
2022/12/23 01:55:30;;;;;;;4.28;2.63;;;15.90;68.30;;;;;;10364589;28;20124;-52
2022/12/23 02:05:52;;;;;;;3.67;2.00;;;15.90;68.20;;;;;;10364355;28;20037;-50
2022/12/23 02:11:33;;;;;;;5.10;2.53;;;15.90;68.30;;;;;;10362789;28;20125;-51
2022/12/23 02:16:43;;;;;;;3.33;2.60;;;15.90;68.40;;;;;;10363124;28;20121;-50
2022/12/23 02:22:10;;;;;;;3.53;2.17;;;15.90;68.30;;;;;;10338411;28;20184;-52
2022/12/23 02:27:29;;;;;;;3.45;2.53;;;15.90;68.20;;;;;;10348370;28;20409;-50
2022/12/23 02:33:03;;;;;;;3.10;2.30;;;15.90;68.30;;;;;;10337742;28;20018;-51
2022/12/23 02:38:27;;;;;;;3.00;2.17;;;15.90;68.30;;;;;;10362320;28;20054;-50
2022/12/23 02:43:45;;;;;;;4.03;3.33;;;15.90;68.20;;;;;;10341456;28;20062;-50
2022/12/23 02:49:17;;;;;;;3.53;2.25;;;15.90;68.10;;;;;;10321842;28;20421;-51
2022/12/23 02:54:28;;;;;;;5.20;2.55;;;15.90;68.30;;;;;;10324176;28;20042;-48
2022/12/23 02:59:39;;;;;;;4.10;2.30;;;15.90;68.30;;;;;;10329459;28;20077;-48
2022/12/23 03:04:40;;;;;;;3.95;2.30;;;15.90;68.10;;;;;;10356875;28;20561;-50
2022/12/23 03:10:20;;;;;;;2.70;2.15;;;15.90;68.00;;;;;;10337305;28;20398;-50
2022/12/23 03:15:37;;;;;;;3.47;2.17;;;15.90;68.10;;;;;;10330185;28;20580;-52
2022/12/23 03:20:40;;;;;;;5.43;2.30;;;15.90;68.10;;;;;;10329190;28;20022;-49
2022/12/23 03:25:48;;;;;;;5.32;2.45;;;15.90;68.10;;;;;;10370182;28;20037;-47
2022/12/23 03:30:54;;;;;;;5.00;2.50;;;15.90;68.00;;;;;;10368908;28;20073;-47
2022/12/23 03:36:07;;;;;;;3.83;2.45;;;15.90;68.10;;;;;;10369840;28;20026;-49
2022/12/23 03:41:15;;;;;;;4.30;2.22;;;15.90;68.10;;;;;;10362666;28;20096;-49
2022/12/23 03:46:23;;;;;;;3.28;1.98;;;15.90;68.00;;;;;;10367973;28;20046;-48
2022/12/23 03:51:45;;;;;;;3.10;1.90;;;15.90;67.90;;;;;;10369232;28;20089;-51
2022/12/23 03:56:56;;;;;;;3.40;2.03;;;15.90;67.90;;;;;;10367782;28;20061;-49
2022/12/23 04:02:07;;;;;;;2.55;1.60;;;15.90;68.00;;;;;;10367646;28;20036;-49
2022/12/23 04:07:21;;;;;;;3.53;2.20;;;15.90;68.00;;;;;;10367700;28;20804;-49
2022/12/23 04:12:24;;;;;;;2.63;2.00;;;15.90;68.40;;;;;;10353869;28;20042;-50
2022/12/23 04:17:25;;;;;;;3.15;1.95;;;16.00;67.70;;;;;;10354050;28;20504;-49
2022/12/23 04:22:25;;;;;;;2.83;1.98;;;15.90;67.70;;;;;;10354744;28;20073;-50
2022/12/23 04:27:26;;;;;;;2.88;1.52;;;16.00;67.70;;;;;;10367939;28;20022;-49
2022/12/23 04:32:26;;;;;;;3.00;1.92;;;15.90;67.70;;;;;;10366125;28;20110;-50
2022/12/23 04:37:27;;;;;;;2.72;1.60;;;15.90;67.80;;;;;;10366150;28;20144;-49
2022/12/23 04:42:28;;;;;;;3.80;2.00;;;15.90;67.60;;;;;;10338170;28;20022;-49
2022/12/23 04:47:29;;;;;;;2.00;1.40;;;16.00;67.60;;;;;;10359746;28;20460;-51
2022/12/23 04:52:29;;;;;;;3.85;2.13;;;15.90;67.70;;;;;;10361370;28;20018;-50
2022/12/23 04:57:30;;;;;;;3.08;1.85;;;15.90;67.80;;;;;;10350295;28;20424;-50
2022/12/23 05:02:31;;;;;;;3.13;1.45;;;16.00;67.80;;;;;;10343280;28;20105;-50
2022/12/23 05:07:31;;;;;;;2.97;1.80;;;15.90;67.60;;;;;;10348527;28;20022;-52
2022/12/23 05:12:32;;;;;;;2.42;1.77;;;15.90;67.60;;;;;;10337513;28;20686;-51
2022/12/23 05:17:33;;;;;;;2.85;2.00;;;15.90;67.70;;;;;;10362623;28;20088;-50
2022/12/23 05:22:34;;;;;;;1.90;1.17;;;15.90;67.70;;;;;;10351104;28;20033;-49
2022/12/23 05:27:35;;;;;;;2.15;1.58;;;16.00;67.60;;;;;;10353709;28;20113;-50
2022/12/23 05:32:36;;;;;;;2.80;1.65;;;15.90;67.50;;;;;;10347635;28;20022;-47
2022/12/23 05:37:36;;;;;;;2.50;1.20;;;15.90;67.70;;;;;;10340539;28;20543;-54
2022/12/23 05:42:37;;;;;;;2.55;1.50;;;15.90;67.70;;;;;;10356960;28;20113;-51
2022/12/23 05:47:38;;;;;;;1.73;1.23;;;15.90;67.50;;;;;;10347056;28;20684;-51
2022/12/23 05:52:39;;;;;;;2.65;1.77;;;16.00;67.80;;;;;;10348427;28;20609;-48
2022/12/23 05:57:39;;;;;;;4.30;1.45;;;16.00;68.30;;;;;;10342931;28;20084;-47
2022/12/23 06:02:40;;;;;;;4.10;1.55;;;16.00;68.90;;;;;;10355063;28;20050;-48
2022/12/23 06:07:41;;;;;;;6.45;2.22;;;16.00;69.50;;;;;;10341588;28;20033;-50
2022/12/23 06:12:42;;;;;;;4.72;1.55;;;16.10;69.70;;;;;;10346160;28;20460;-48
2022/12/23 06:17:42;;;;;;;3.92;2.00;;;16.10;69.50;;;;;;10349043;28;20053;-49
2022/12/23 06:22:43;;;;;;;8.07;1.95;;;16.20;70.30;;;;;;10359207;28;20045;-49
2022/12/23 06:27:44;;;;;;;7.22;1.63;;;16.20;70.00;;;;;;10358885;28;20052;-48
2022/12/23 06:32:45;;;;;;;2.75;1.23;;;16.10;70.30;;;;;;10366235;28;20021;-48
2022/12/23 06:37:45;;;;;;;5.13;2.05;;;16.10;70.10;;;;;;10356601;28;20114;-49
2022/12/23 06:42:46;;;;;;;6.00;1.95;;;16.10;70.40;;;;;;10366823;28;20069;-50
2022/12/23 06:47:47;;;;;;;13.80;1.95;;;16.00;70.40;;;;;;10352030;28;20065;-50
2022/12/23 06:52:48;;;;;;;8.25;1.70;;;16.00;70.70;;;;;;10348425;28;20131;-49
2022/12/23 06:57:48;;;;;;;7.57;1.77;;;15.90;70.60;;;;;;10358029;28;20018;-49
2022/12/23 07:02:49;;;;;;;6.55;2.08;;;16.00;70.60;;;;;;10350478;28;20104;-49
2022/12/23 07:07:49;;;;;;;9.75;2.20;;;15.90;70.70;;;;;;10355272;28;20121;-50
2022/12/23 07:12:50;;;;;;;6.88;1.67;;;15.90;70.40;;;;;;10352559;28;20129;-50
2022/12/23 07:17:52;;;;;;;4.45;1.60;;;15.70;70.30;;;;;;10354705;28;20113;-52
2022/12/23 07:22:54;;;;;;;3.67;1.48;;;15.70;70.00;;;;;;10345788;28;20022;-51
2022/12/23 07:27:55;;;;;;;5.40;1.77;;;15.70;70.00;;;;;;10370635;28;20027;-47
2022/12/23 07:32:56;;;;;;;4.25;1.73;;;15.60;70.10;;;;;;10353916;28;20417;-50
2022/12/23 07:37:56;;;;;;;4.78;1.85;;;15.60;70.20;;;;;;10353828;28;20104;-50
2022/12/23 07:42:58;;;;;;;4.10;1.25;;;15.60;70.20;;;;;;10360189;28;20029;-48
2022/12/23 07:48:00;;;;;;;4.03;1.40;;;15.60;70.00;;;;;;10369305;28;20022;-48
2022/12/23 07:53:01;;;;;;;2.63;1.60;;;15.70;69.70;;;;;;10355838;28;20080;-49
2022/12/23 07:58:01;;;;;;;6.38;1.60;;;15.70;69.60;;;;;;10341670;28;20117;-49
2022/12/23 08:03:02;;;;;;;4.93;1.52;;;15.70;69.30;;;;;;10324818;28;20062;-50
2022/12/23 08:08:03;;;;;;;3.97;1.65;;;15.80;69.10;;;;;;10326836;28;20152;-51
2022/12/23 08:13:04;;;;;;;4.03;1.50;;;15.80;68.80;;;;;;10325871;28;20634;-48
2022/12/23 08:18:05;;;;;;;4.47;1.40;;;15.80;68.80;;;;;;10342732;28;20093;-49
2022/12/23 08:23:05;;;;;;;4.35;1.13;;;15.80;68.70;;;;;;10353130;28;20366;-48
2022/12/23 08:28:06;;;;;;;4.03;1.60;;;15.80;68.70;;;;;;10378331;28;20049;-47
2022/12/23 08:33:07;;;;;;;3.00;1.30;;;15.90;68.60;;;;;;10365651;28;20097;-48
2022/12/23 08:38:07;;;;;;;2.72;1.27;;;15.90;68.30;;;;;;10367585;28;20399;-48
2022/12/23 08:43:08;;;;;;;4.22;1.38;;;15.90;68.30;;;;;;10336046;28;20022;-50
2022/12/23 08:48:09;;;;;;;4.03;1.30;;;15.90;68.30;;;;;;10353081;28;20138;-48
2022/12/23 08:53:11;;;;;;;4.97;1.92;;;15.90;68.40;;;;;;10365382;28;20108;-48
2022/12/23 08:58:14;;;;;;;2.15;1.50;;;15.80;69.00;;;;;;10341758;28;20104;-48
2022/12/23 09:03:14;;;;;;;2.92;1.38;;;15.80;68.60;;;;;;10360759;28;20050;-49
2022/12/23 09:08:15;;;;;;;3.85;1.48;;;15.70;68.70;;;;;;10364502;28;20415;-51
2022/12/23 09:13:16;;;;;;;4.03;2.13;;;15.70;68.70;;;;;;10345109;28;20133;-49
2022/12/23 09:18:16;;;;;;;7.65;2.78;;;15.80;68.50;;;;;;10342068;28;20049;-46
2022/12/23 09:23:17;;;;;;;5.53;2.83;;;15.90;68.90;;;;;;10327653;28;20137;-46
2022/12/23 09:28:18;;;;;;;2.97;1.38;;;16.10;68.50;;;;;;10315511;28;20558;-48
2022/12/23 09:33:19;;;;;;;7.30;2.17;;;16.10;68.20;;;;;;10311690;28;20114;-52
2022/12/23 09:38:19;;;;;;;4.00;1.83;;;16.10;68.10;;;;;;10315655;28;20074;-49
2022/12/23 09:43:47;;;;;;;6.50;2.67;;;16.00;68.20;;;;;;10310028;28;20106;-48
2022/12/23 09:49:10;;;;;;;4.80;2.13;;;16.00;68.30;;;;;;10310741;28;20410;-53
2022/12/23 09:54:21;;;;;;;3.25;1.85;;;15.90;68.40;;;;;;10304046;28;20041;-51
2022/12/23 09:59:58;;;;;;;3.17;1.65;;;15.90;68.40;;;;;;10309567;28;20026;-52
2022/12/23 10:05:24;;;;;;;4.57;2.10;;;15.80;68.50;;;;;;10292244;28;20111;-51
2022/12/23 10:10:36;;;;;;;5.25;2.53;;;15.80;68.70;;;;;;10316488;28;20902;-49
2022/12/23 10:15:46;;;;;;;2.97;1.80;;;15.80;68.50;;;;;;10337126;28;20551;-51
2022/12/23 10:20:55;;;;;;;3.17;1.63;;;15.80;68.50;;;;;;10351530;28;20022;-51
2022/12/23 10:25:56;;;;;;;3.83;1.73;;;15.80;68.30;;;;;;10349859;28;20036;-49
2022/12/23 10:31:04;;;;;;;2.70;1.92;;;15.90;68.10;;;;;;10338947;28;20027;-50
2022/12/23 10:36:17;;;;;;;4.07;2.38;;;15.90;68.00;;;;;;10325052;28;20026;-51
2022/12/23 10:42:03;;;;;;;2.65;1.30;;;15.90;68.10;;;;;;10337751;28;20026;-52
2022/12/23 10:47:40;;;;;;;4.35;1.85;;;15.90;68.20;;;;;;10338749;28;20026;-47
2022/12/23 10:52:43;;;;;;;3.90;1.80;;;15.80;68.30;;;;;;10335117;28;20538;-49
2022/12/23 10:57:44;;;;;;;3.50;2.00;;;15.80;68.50;;;;;;10324291;28;20025;-47
2022/12/23 11:03:22;;;;;;;3.50;2.00;;;15.90;68.10;;;;;;10357769;28;20049;-48
2022/12/23 11:08:25;;;;;;;6.25;2.15;;;15.90;67.80;;;;;;10332694;28;20133;-50
2022/12/23 11:13:34;;;;;;;4.60;2.65;;;16.00;67.90;;;;;;10314762;28;20777;-49
2022/12/23 11:18:35;;;;;;;5.78;3.10;;;15.90;68.50;;;;;;10348385;28;20684;-50
2022/12/23 11:23:36;;;;;;;4.18;2.85;;;15.90;70.20;;;;;;10349615;28;20037;-49
2022/12/23 11:28:54;;;;;;;4.82;2.42;;;16.00;70.40;;;;;;10298665;28;20113;-49
2022/12/23 11:33:59;;;;;;;3.30;1.75;;;16.10;69.50;;;;;;10353134;28;20018;-49
2022/12/23 11:39:09;;;;;;;452.23;387.85;;;16.10;69.20;;;;;;10333554;28;20030;-47
2022/12/23 11:44:34;;;;;;;;;;;16.20;69.60;;;;;;10350693;28;20080;-45
2022/12/23 11:49:48;;;;;;;66.45;53.30;;;16.10;69.50;;;;;;10351140;28;20014;-50
2022/12/23 11:55:02;;;;;;;72.50;54.80;;;16.10;69.60;;;;;;10330805;28;20031;-50
2022/12/23 12:00:06;;;;;;;58.17;37.08;;;16.10;69.40;;;;;;10353537;28;20027;-51
2022/12/23 12:05:45;;;;;;;54.67;37.63;;;16.20;69.00;;;;;;10307065;28;20034;-50
2022/12/23 12:10:46;;;;;;;49.25;36.05;;;16.30;68.80;;;;;;10314687;28;20096;-49
2022/12/23 12:16:04;;;;;;;45.92;35.63;;;16.40;68.30;;;;;;10342165;28;20022;-47
2022/12/23 12:21:13;;;;;;;50.85;40.22;;;16.60;67.80;;;;;;10351479;28;20680;-48
2022/12/23 12:26:33;;;;;;;41.20;30.48;;;16.60;68.90;;;;;;10346207;28;20073;-50
2022/12/23 12:31:44;;;;;;;34.90;26.23;;;16.60;68.50;;;;;;10347785;28;20026;-46
2022/12/23 12:36:56;;;;;;;32.83;24.75;;;16.50;68.90;;;;;;10336612;28;20022;-45
2022/12/23 12:42:13;;;;;;;35.05;23.65;;;16.50;68.60;;;;;;10327496;28;20031;-47
2022/12/23 12:47:26;;;;;;;26.65;19.10;;;16.40;69.10;;;;;;10341519;28;20037;-49
2022/12/23 12:52:31;;;;;;;25.63;17.17;;;16.40;69.10;;;;;;10333003;28;20030;-48
2022/12/23 12:57:35;;;;;;;22.73;15.63;;;16.40;69.70;;;;;;10333856;28;20018;-52
2022/12/23 13:03:15;;;;;;;19.95;13.82;;;16.30;69.30;;;;;;10340639;28;20030;-51
2022/12/23 13:08:36;;;;;;;17.07;11.57;;;16.30;69.10;;;;;;10325637;28;20113;-49
2022/12/23 13:14:05;;;;;;;18.05;12.57;;;16.40;68.90;;;;;;10325481;28;20370;-47
2022/12/23 13:19:38;;;;;;;17.70;10.68;;;16.60;68.70;;;;;;10290262;28;20038;-47
2022/12/23 13:25:06;;;;;;;15.10;11.00;;;16.60;69.20;;;;;;10335708;28;20034;-49
2022/12/23 13:30:19;;;;;;;14.55;10.90;;;16.50;69.20;;;;;;10357501;28;20378;-49
2022/12/23 13:36:03;;;;;;;20.50;11.13;;;16.50;69.20;;;;;;10340833;28;20072;-50
2022/12/23 13:41:31;;;;;;;16.88;10.25;;;16.40;70.10;;;;;;10344305;28;20033;-46
2022/12/23 13:46:50;;;;;;;13.82;9.38;;;16.50;69.90;;;;;;10341360;28;20030;-51
2022/12/23 13:52:36;;;;;;;14.47;8.80;;;16.50;70.00;;;;;;10349783;28;20105;-47
2022/12/23 13:57:54;;;;;;;14.00;9.48;;;16.40;70.20;;;;;;10350241;28;20022;-52
2022/12/23 14:03:00;;;;;;;13.30;8.68;;;16.40;70.50;;;;;;10351653;28;20128;-49
2022/12/23 14:08:18;;;;;;;13.00;7.93;;;16.40;70.80;;;;;;10364454;28;20045;-49
2022/12/23 14:13:44;;;;;;;15.70;7.93;;;16.40;70.80;;;;;;10346567;28;20045;-50
2022/12/23 14:19:18;;;;;;;14.40;8.18;;;16.30;70.50;;;;;;10351761;28;20022;-51
2022/12/23 14:24:49;;;;;;;18.85;7.70;;;16.30;70.60;;;;;;10347219;28;20026;-52
2022/12/23 14:30:37;;;;;;;13.93;7.30;;;16.30;71.20;;;;;;10354768;28;20092;-49
2022/12/23 14:35:38;;;;;;;13.95;7.68;;;16.30;70.50;;;;;;10315232;28;20037;-48
2022/12/23 14:40:38;;;;;;;11.43;6.85;;;16.30;71.40;;;;;;10343251;28;20029;-46
2022/12/23 14:45:42;;;;;;;19.10;7.32;;;16.40;71.00;;;;;;10358073;28;20497;-50
2022/12/23 14:50:57;;;;;;;15.35;7.55;;;16.40;71.50;;;;;;10358277;28;20045;-47
2022/12/23 14:56:46;;;;;;;15.25;8.70;;;16.30;70.90;;;;;;10300644;28;20054;-46
2022/12/23 15:01:54;;;;;;;20.83;7.90;;;16.30;71.00;;;;;;10356831;28;20365;-48
2022/12/23 15:07:06;;;;;;;11.07;6.47;;;16.30;71.00;;;;;;10353790;28;20026;-48
2022/12/23 15:12:17;;;;;;;11.40;6.03;;;16.30;71.00;;;;;;10342520;28;20050;-47
2022/12/23 15:17:28;;;;;;;11.60;6.43;;;16.30;71.10;;;;;;10353142;28;20049;-48
2022/12/23 15:22:33;;;;;;;17.13;6.07;;;16.30;71.10;;;;;;10369122;28;21264;-46
2022/12/23 15:27:35;;;;;;;15.95;7.35;;;16.30;71.20;;;;;;10364759;28;20464;-47
2022/12/23 15:32:40;;;;;;;14.27;5.90;;;16.30;71.40;;;;;;10348368;28;20022;-50
2022/12/23 15:37:41;;;;;;;10.68;5.93;;;16.40;71.80;;;;;;10339930;28;20029;-51
2022/12/23 15:42:47;;;;;;;12.82;5.70;;;16.50;71.30;;;;;;10341158;28;20026;-47
2022/12/23 15:47:49;;;;;;;16.77;6.25;;;16.50;71.20;;;;;;10345589;28;20572;-50
2022/12/23 15:52:53;;;;;;;17.73;5.82;;;16.30;71.10;;;;;;10341450;28;20470;-47
2022/12/23 15:57:54;;;;;;;23.75;6.05;;;16.40;71.10;;;;;;10338836;28;20021;-48
2022/12/23 16:02:56;;;;;;;21.83;6.22;;;16.20;71.30;;;;;;10358932;28;20120;-48
2022/12/23 16:08:20;;;;;;;20.63;5.80;;;16.30;71.40;;;;;;10318332;28;20039;-47
2022/12/23 16:13:22;;;;;;;21.15;6.28;;;16.30;71.60;;;;;;10360236;28;20034;-48
2022/12/23 16:18:31;;;;;;;15.88;5.82;;;16.20;71.70;;;;;;10332378;28;20026;-48
2022/12/23 16:23:35;;;;;;;15.07;6.07;;;16.20;71.70;;;;;;10352538;28;20068;-46
2022/12/23 16:28:50;;;;;;;17.63;7.07;;;16.20;71.50;;;;;;10342378;28;20029;-51
2022/12/23 16:33:56;;;;;;;20.92;6.43;;;16.20;71.50;;;;;;10348977;28;20014;-49
2022/12/23 16:39:23;;;;;;;13.07;5.53;;;16.40;71.10;;;;;;10321295;28;20381;-48
2022/12/23 16:44:23;;;;;;;15.95;5.72;;;16.30;71.20;;;;;;10347669;28;20030;-48
2022/12/23 16:49:32;;;;;;;15.60;5.38;;;16.30;71.30;;;;;;10364413;28;20440;-47
2022/12/23 16:54:33;;;;;;;464.37;205.30;;;16.30;71.40;;;;;;10345041;28;20091;-47
2022/12/23 16:59:33;;;;;;;118.82;60.53;;;16.50;73.90;;;;;;10358489;28;20029;-51
2022/12/23 17:04:34;;;;;;;137.38;73.30;;;16.40;72.80;;;;;;10362691;28;20077;-48
2022/12/23 17:09:35;;;;;;;131.48;71.47;;;16.40;77.10;;;;;;10346051;28;20460;-48
2022/12/23 17:14:35;;;;;;;126.57;68.40;;;16.50;79.70;;;;;;10344612;28;20045;-46
2022/12/23 17:19:36;;;;;;;110.28;60.28;;;16.50;78.40;;;;;;10359700;28;20049;-51
2022/12/23 17:24:37;;;;;;;107.60;59.80;;;16.40;76.40;;;;;;10357451;28;20485;-48
2022/12/23 17:29:37;;;;;;;116.80;62.05;;;16.40;76.60;;;;;;10327263;28;20021;-52
2022/12/23 17:34:38;;;;;;;110.85;59.42;;;16.30;76.40;;;;;;10311893;28;20113;-49
2022/12/23 17:39:42;;;;;;;91.75;53.22;;;16.30;76.10;;;;;;10342234;28;20075;-49
2022/12/23 17:44:43;;;;;;;103.78;51.63;;;16.30;75.60;;;;;;10360265;28;20068;-48
2022/12/23 17:49:45;;;;;;;94.15;51.22;;;16.30;75.70;;;;;;10312842;28;20381;-48
2022/12/23 17:54:49;;;;;;;84.30;49.45;;;16.20;75.80;;;;;;10343119;28;20059;-47
2022/12/23 17:59:52;;;;;;;90.03;50.63;;;16.20;75.30;;;;;;10346007;28;20026;-48
2022/12/23 18:04:53;;;;;;;80.50;47.20;;;16.00;75.20;;;;;;10363916;28;20026;-47
2022/12/23 18:09:54;;;;;;;82.82;46.17;;;16.00;75.40;;;;;;10346416;28;20465;-48
2022/12/23 18:14:55;;;;;;;76.45;41.08;;;15.90;75.20;;;;;;10358560;28;20477;-51
2022/12/23 18:19:56;;;;;;;84.45;43.10;;;15.90;74.80;;;;;;10360126;28;20025;-48
2022/12/23 18:24:57;;;;;;;65.63;38.92;;;15.90;74.90;;;;;;10360798;28;20030;-52
2022/12/23 18:29:57;;;;;;;69.25;37.17;;;15.90;74.80;;;;;;10350180;28;20093;-52
2022/12/23 18:34:58;;;;;;;69.28;36.58;;;15.90;74.60;;;;;;10361886;28;20022;-49
2022/12/23 18:39:58;;;;;;;63.88;34.42;;;16.00;75.30;;;;;;10326905;28;20112;-47
2022/12/23 18:44:59;;;;;;;63.15;35.90;;;16.00;74.90;;;;;;10345181;28;20066;-48
2022/12/23 18:50:00;;;;;;;56.92;33.58;;;15.90;74.40;;;;;;10353928;28;20105;-48
2022/12/23 18:55:00;;;;;;;55.25;31.67;;;15.80;74.40;;;;;;10357919;28;20098;-48
2022/12/23 19:00:09;;;;;;;58.30;31.15;;;15.90;74.60;;;;;;10354498;28;20393;-50
2022/12/23 19:05:26;;;;;;;45.33;26.63;;;15.80;74.40;;;;;;10352114;28;20042;-49
2022/12/23 19:10:32;;;;;;;56.13;28.38;;;15.70;74.20;;;;;;10356559;28;20046;-47
2022/12/23 19:15:32;;;;;;;54.05;27.50;;;15.70;74.10;;;;;;10356824;28;20027;-48
2022/12/23 19:20:33;;;;;;;42.17;24.05;;;15.70;73.90;;;;;;10349837;28;20659;-47
2022/12/23 19:25:34;;;;;;;42.38;25.17;;;15.70;73.60;;;;;;10324142;28;20109;-47
2022/12/23 19:30:35;;;;;;;41.85;22.02;;;15.70;73.30;;;;;;10351046;28;20053;-47
2022/12/23 19:35:36;;;;;;;44.03;21.85;;;15.70;73.10;;;;;;10368930;28;20526;-50
2022/12/23 19:40:37;;;;;;;41.47;20.70;;;15.80;72.90;;;;;;10362922;28;20061;-47
2022/12/23 19:45:37;;;;;;;31.98;18.70;;;15.90;72.60;;;;;;10344866;28;20073;-48
2022/12/23 19:50:38;;;;;;;37.97;19.65;;;15.90;72.30;;;;;;10369301;28;20105;-49
2022/12/23 19:55:39;;;;;;;32.45;17.30;;;16.00;72.00;;;;;;10366179;28;20101;-49
2022/12/23 20:00:39;;;;;;;31.58;17.85;;;16.00;71.90;;;;;;10367930;28;20049;-50
2022/12/23 20:05:40;;;;;;;30.48;16.25;;;16.00;71.80;;;;;;10359307;28;20066;-48
2022/12/23 20:10:42;;;;;;;31.50;15.80;;;15.90;71.60;;;;;;10351140;28;20057;-47
2022/12/23 20:15:42;;;;;;;38.10;15.50;;;16.00;71.50;;;;;;10350032;28;20026;-47
2022/12/23 20:20:43;;;;;;;28.45;13.38;;;16.00;71.30;;;;;;10351741;28;20115;-52
2022/12/23 20:25:44;;;;;;;28.52;13.35;;;16.00;71.60;;;;;;10336443;28;20168;-50
2022/12/23 20:30:47;;;;;;;27.02;13.43;;;16.00;71.50;;;;;;10346665;28;20437;-49
2022/12/23 20:35:47;;;;;;;24.40;13.00;;;16.00;71.60;;;;;;10344477;28;20018;-50
2022/12/23 20:40:48;;;;;;;23.25;12.27;;;16.00;71.30;;;;;;10349379;28;20057;-48
2022/12/23 20:45:50;;;;;;;23.17;11.70;;;16.10;71.20;;;;;;10358934;28;20026;-47
2022/12/23 20:50:50;;;;;;;17.92;11.20;;;16.10;71.10;;;;;;10342009;28;20024;-50
2022/12/23 20:55:51;;;;;;;25.27;11.75;;;16.00;71.10;;;;;;10350096;28;20300;-48
2022/12/23 21:00:52;;;;;;;21.00;10.32;;;15.90;71.10;;;;;;10352563;28;20162;-49
2022/12/23 21:05:55;;;;;;;20.10;9.05;;;15.90;71.20;;;;;;10361843;28;20121;-47
2022/12/23 21:10:57;;;;;;;19.52;9.60;;;15.90;71.20;;;;;;10330921;28;20498;-49
2022/12/23 21:16:03;;;;;;;20.25;9.80;;;15.90;71.00;;;;;;10305874;28;20116;-47
2022/12/23 21:21:04;;;;;;;18.13;9.52;;;15.90;70.80;;;;;;10363100;28;20024;-49
2022/12/23 21:26:10;;;;;;;16.90;9.52;;;15.90;70.80;;;;;;10345759;28;20455;-48
2022/12/23 21:31:14;;;;;;;16.42;7.88;;;16.00;70.50;;;;;;10363052;28;20014;-48
2022/12/23 21:36:18;;;;;;;16.05;7.82;;;16.00;70.30;;;;;;10344411;28;20545;-50
2022/12/23 21:41:26;;;;;;;18.40;8.60;;;15.90;70.30;;;;;;10346837;28;20042;-49
2022/12/23 21:46:28;;;;;;;12.75;7.32;;;16.00;70.20;;;;;;10323913;28;20030;-47
2022/12/23 21:51:33;;;;;;;14.65;6.80;;;16.10;70.00;;;;;;10333252;28;20028;-48
2022/12/23 21:56:34;;;;;;;16.25;7.13;;;16.00;69.90;;;;;;10324063;28;20022;-47
2022/12/23 22:01:35;;;;;;;16.25;7.50;;;16.10;69.90;;;;;;10306041;28;20038;-47
2022/12/23 22:06:42;;;;;;;12.23;6.13;;;16.00;69.80;;;;;;10306574;28;20486;-47
2022/12/23 22:11:43;;;;;;;13.30;5.50;;;16.00;69.80;;;;;;10323869;28;20049;-48
2022/12/23 22:16:44;;;;;;;12.38;6.00;;;16.00;69.80;;;;;;10290315;28;20022;-48
2022/12/23 22:21:45;;;;;;;17.15;6.40;;;16.00;69.90;;;;;;10333422;28;20018;-47
2022/12/23 22:26:45;;;;;;;16.98;5.30;;;16.00;69.80;;;;;;10322666;28;20110;-49
2022/12/23 22:31:49;;;;;;;9.63;5.10;;;16.10;69.40;;;;;;10348607;28;20028;-47
2022/12/23 22:36:50;;;;;;;12.00;5.07;;;16.10;69.30;;;;;;10363813;28;20068;-46
2022/12/23 22:41:51;;;;;;;12.43;5.55;;;16.10;69.40;;;;;;10362507;28;20022;-47
2022/12/23 22:46:52;;;;;;;11.77;5.10;;;16.00;69.50;;;;;;10351966;28;20129;-46
2022/12/23 22:51:52;;;;;;;10.93;5.25;;;16.00;69.60;;;;;;10363672;28;20097;-49
2022/12/23 22:56:53;;;;;;;8.57;4.22;;;16.00;69.40;;;;;;10329723;28;20061;-47
2022/12/23 23:01:54;;;;;;;9.88;4.68;;;16.00;69.30;;;;;;10361387;28;20092;-49
2022/12/23 23:06:54;;;;;;;11.27;4.65;;;16.00;69.40;;;;;;10356045;28;20121;-49
2022/12/23 23:11:55;;;;;;;7.95;4.03;;;16.00;69.50;;;;;;10284190;28;20129;-47
2022/12/23 23:16:57;;;;;;;12.20;4.28;;;16.00;69.50;;;;;;10281332;28;20058;-48
2022/12/23 23:21:57;;;;;;;10.00;4.78;;;16.00;69.20;;;;;;10288610;28;20098;-49
2022/12/23 23:26:58;;;;;;;10.88;4.82;;;16.00;69.20;;;;;;10289550;28;20122;-46
2022/12/23 23:31:59;;;;;;;8.63;3.28;;;16.00;69.30;;;;;;10289370;28;20015;-47
2022/12/23 23:37:00;;;;;;;9.52;4.35;;;16.00;69.30;;;;;;10289201;28;20031;-47
2022/12/23 23:42:01;;;;;;;11.13;4.75;;;16.00;69.20;;;;;;10288031;28;20042;-48
2022/12/23 23:47:02;;;;;;;9.13;4.35;;;16.00;69.00;;;;;;10289044;28;20114;-48
2022/12/23 23:52:02;;;;;;;8.38;3.75;;;16.00;68.90;;;;;;10287252;28;20105;-48
2022/12/23 23:57:03;;;;;;;8.68;3.72;;;16.00;68.90;;;;;;10287152;28;20042;-48
